Uneedus, Louisiana
Current Conditions -  °F | °C
As of 1:35 PM on Thursday 27 Nov 2014 (Local Time) from KHDC Reporting Station
Clear Clear  
Wind Chill: 63°   Ceiling: Unl
Heat Index: 63°   Visibility: 10mi
Dew Point: 25°   Wind: 15mph
Humidity: 24%   Direction: 360°N
Pressure: 30.4"   Gusts: NA
Location:  30.6305°N, 90.1949°W
Report Text: KHDC 271935Z AUTO 36013KT 10SM CLR 17/M04 A3040 RMK AO2
Loading
Personal Weather Stations






























Interactive Weather Map New forecast layout! Learn more

10-Day Weather Forecast

Advertisements
Track Severe Weather on mobile